sensor_id;sensor_type;location;lat;lon;timestamp;pressure;altitude;pressure_sealevel;temperature;humidity
60099;BME280;62818;49.394;8.686;2023-04-02T00:03:22;99579.44;;;8.81;100.00
60099;BME280;62818;49.394;8.686;2023-04-02T00:04:22;99572.91;;;8.92;100.00
60099;BME280;62818;49.394;8.686;2023-04-02T00:07:31;99579.81;;;8.78;100.00
60099;BME280;62818;49.394;8.686;2023-04-02T00:08:37;99578.72;;;8.87;100.00
60099;BME280;62818;49.394;8.686;2023-04-02T00:09:40;99577.72;;;8.74;100.00
60099;BME280;62818;49.394;8.686;2023-04-02T00:10:59;99583.19;;;8.72;100.00
60099;BME280;62818;49.394;8.686;2023-04-02T00:12:12;99581.44;;;8.79;100.00
60099;BME280;62818;49.394;8.686;2023-04-02T00:15:30;99586.72;;;8.79;100.00
60099;BME280;62818;49.394;8.686;2023-04-02T00:16:32;99589.75;;;8.91;100.00
60099;BME280;62818;49.394;8.686;2023-04-02T00:17:32;99593.94;;;8.85;100.00
60099;BME280;62818;49.394;8.686;2023-04-02T00:18:37;99590.28;;;8.86;100.00
60099;BME280;62818;49.394;8.686;2023-04-02T00:19:52;99591.78;;;8.74;100.00
60099;BME280;62818;49.394;8.686;2023-04-02T00:22:27;99604.50;;;8.71;100.00
60099;BME280;62818;49.394;8.686;2023-04-02T00:23:30;99597.69;;;8.76;100.00
60099;BME280;62818;49.394;8.686;2023-04-02T00:24:31;99594.41;;;8.74;100.00
60099;BME280;62818;49.394;8.686;2023-04-02T00:25:33;99599.16;;;8.79;100.00
60099;BME280;62818;49.394;8.686;2023-04-02T00:26:44;99595.75;;;8.70;100.00
60099;BME280;62818;49.394;8.686;2023-04-02T00:27:47;99597.06;;;8.74;100.00
60099;BME280;62818;49.394;8.686;2023-04-02T00:28:49;99600.13;;;8.78;100.00
60099;BME280;62818;49.394;8.686;2023-04-02T00:29:53;99599.31;;;8.77;100.00
60099;BME280;62818;49.394;8.686;2023-04-02T00:30:57;99605.78;;;8.75;100.00
60099;BME280;62818;49.394;8.686;2023-04-02T00:31:59;99602.97;;;8.76;100.00
60099;BME280;62818;49.394;8.686;2023-04-02T00:32:59;99604.06;;;8.67;100.00
60099;BME280;62818;49.394;8.686;2023-04-02T00:34:01;99594.75;;;8.86;100.00
60099;BME280;62818;49.394;8.686;2023-04-02T00:35:10;99599.50;;;8.76;100.00
60099;BME280;62818;49.394;8.686;2023-04-02T00:36:18;99599.50;;;8.61;100.00
60099;BME280;62818;49.394;8.686;2023-04-02T00:37:24;99598.41;;;8.70;100.00
60099;BME280;62818;49.394;8.686;2023-04-02T00:38:30;99607.63;;;8.74;100.00
60099;BME280;62818;49.394;8.686;2023-04-02T00:39:39;99608.53;;;8.67;100.00
60099;BME280;62818;49.394;8.686;2023-04-02T00:40:41;99599.66;;;8.60;100.00
60099;BME280;62818;49.394;8.686;2023-04-02T00:41:42;99599.88;;;8.58;100.00
60099;BME280;62818;49.394;8.686;2023-04-02T00:42:47;99600.16;;;8.63;100.00
60099;BME280;62818;49.394;8.686;2023-04-02T00:43:49;99602.41;;;8.66;100.00
60099;BME280;62818;49.394;8.686;2023-04-02T00:44:52;99603.03;;;8.68;100.00
60099;BME280;62818;49.394;8.686;2023-04-02T00:46:00;99595.22;;;8.75;100.00
60099;BME280;62818;49.394;8.686;2023-04-02T00:47:19;99605.97;;;8.59;100.00
60099;BME280;62818;49.394;8.686;2023-04-02T00:49:39;99606.25;;;8.78;100.00
60099;BME280;62818;49.394;8.686;2023-04-02T00:50:43;99610.63;;;8.71;100.00
60099;BME280;62818;49.394;8.686;2023-04-02T00:51:58;99600.50;;;8.60;100.00
60099;BME280;62818;49.394;8.686;2023-04-02T00:53:14;99602.16;;;8.61;100.00
60099;BME280;62818;49.394;8.686;2023-04-02T00:54:24;99601.78;;;8.64;100.00
60099;BME280;62818;49.394;8.686;2023-04-02T00:55:35;99607.97;;;8.57;100.00
60099;BME280;62818;49.394;8.686;2023-04-02T00:56:42;99608.25;;;8.62;100.00
60099;BME280;62818;49.394;8.686;2023-04-02T00:57:44;99602.78;;;8.63;100.00
60099;BME280;62818;49.394;8.686;2023-04-02T00:58:55;99600.41;;;8.68;100.00
60099;BME280;62818;49.394;8.686;2023-04-02T01:01:16;99600.59;;;8.67;100.00
60099;BME280;62818;49.394;8.686;2023-04-02T01:02:36;99603.16;;;8.60;100.00
60099;BME280;62818;49.394;8.686;2023-04-02T01:03:39;99602.31;;;8.60;100.00
60099;BME280;62818;49.394;8.686;2023-04-02T01:04:40;99607.31;;;8.55;100.00
60099;BME280;62818;49.394;8.686;2023-04-02T01:06:06;99603.25;;;8.52;100.00
60099;BME280;62818;49.394;8.686;2023-04-02T01:07:10;99603.25;;;8.67;100.00
60099;BME280;62818;49.394;8.686;2023-04-02T01:10:51;99613.72;;;8.60;100.00
60099;BME280;62818;49.394;8.686;2023-04-02T01:13:45;99617.00;;;8.62;100.00
60099;BME280;62818;49.394;8.686;2023-04-02T01:15:20;99613.72;;;8.60;100.00
60099;BME280;62818;49.394;8.686;2023-04-02T01:16:36;99618.91;;;8.68;100.00
60099;BME280;62818;49.394;8.686;2023-04-02T01:23:39;99618.63;;;8.63;100.00
60099;BME280;62818;49.394;8.686;2023-04-02T01:25:03;99630.09;;;8.70;100.00
60099;BME280;62818;49.394;8.686;2023-04-02T01:27:19;99623.72;;;8.65;100.00
60099;BME280;62818;49.394;8.686;2023-04-02T01:28:32;99623.94;;;8.63;100.00
60099;BME280;62818;49.394;8.686;2023-04-02T01:29:53;99622.09;;;8.78;100.00
60099;BME280;62818;49.394;8.686;2023-04-02T01:31:00;99625.72;;;8.77;100.00
60099;BME280;62818;49.394;8.686;2023-04-02T01:32:05;99625.56;;;8.79;100.00
60099;BME280;62818;49.394;8.686;2023-04-02T01:33:10;99629.41;;;8.76;100.00
60099;BME280;62818;49.394;8.686;2023-04-02T01:34:15;99622.19;;;8.70;100.00
60099;BME280;62818;49.394;8.686;2023-04-02T01:35:18;99631.13;;;8.69;100.00
60099;BME280;62818;49.394;8.686;2023-04-02T01:36:35;99637.22;;;8.70;100.00
60099;BME280;62818;49.394;8.686;2023-04-02T01:38:23;99639.88;;;8.70;100.00
60099;BME280;62818;49.394;8.686;2023-04-02T01:41:00;99640.41;;;8.80;100.00
60099;BME280;62818;49.394;8.686;2023-04-02T01:42:28;99633.38;;;8.72;100.00
60099;BME280;62818;49.394;8.686;2023-04-02T01:43:56;99633.66;;;8.77;100.00
60099;BME280;62818;49.394;8.686;2023-04-02T01:45:07;99634.84;;;8.89;100.00
60099;BME280;62818;49.394;8.686;2023-04-02T01:46:30;99628.03;;;8.80;100.00
60099;BME280;62818;49.394;8.686;2023-04-02T01:47:32;99634.50;;;8.78;100.00
60099;BME280;62818;49.394;8.686;2023-04-02T01:48:33;99640.31;;;8.73;100.00
60099;BME280;62818;49.394;8.686;2023-04-02T01:49:33;99639.78;;;8.78;100.00
60099;BME280;62818;49.394;8.686;2023-04-02T01:50:36;99643.41;;;8.77;100.00
60099;BME280;62818;49.394;8.686;2023-04-02T01:51:42;99642.22;;;8.79;100.00
60099;BME280;62818;49.394;8.686;2023-04-02T01:52:48;99643.31;;;8.70;100.00
60099;BME280;62818;49.394;8.686;2023-04-02T01:53:50;99645.50;;;8.81;100.00
60099;BME280;62818;49.394;8.686;2023-04-02T01:54:51;99647.06;;;8.90;100.00
60099;BME280;62818;49.394;8.686;2023-04-02T01:55:57;99647.50;;;8.79;100.00
60099;BME280;62818;49.394;8.686;2023-04-02T01:56:59;99648.31;;;8.94;100.00
60099;BME280;62818;49.394;8.686;2023-04-02T01:58:01;99647.50;;;8.79;100.00
60099;BME280;62818;49.394;8.686;2023-04-02T01:59:03;99649.16;;;8.80;100.00
60099;BME280;62818;49.394;8.686;2023-04-02T02:00:05;99645.16;;;8.70;100.00
60099;BME280;62818;49.394;8.686;2023-04-02T02:01:18;99644.13;;;8.71;100.00
60099;BME280;62818;49.394;8.686;2023-04-02T02:02:22;99649.34;;;8.79;100.00
60099;BME280;62818;49.394;8.686;2023-04-02T02:03:22;99646.97;;;8.84;100.00
60099;BME280;62818;49.394;8.686;2023-04-02T02:04:24;99644.41;;;8.76;100.00
60099;BME280;62818;49.394;8.686;2023-04-02T02:05:25;99653.19;;;8.76;100.00
60099;BME280;62818;49.394;8.686;2023-04-02T02:06:26;99646.13;;;8.83;100.00
60099;BME280;62818;49.394;8.686;2023-04-02T02:07:27;99645.16;;;8.84;100.00
60099;BME280;62818;49.394;8.686;2023-04-02T02:08:31;99644.50;;;8.82;100.00
60099;BME280;62818;49.394;8.686;2023-04-02T02:09:47;99647.06;;;8.90;100.00
60099;BME280;62818;49.394;8.686;2023-04-02T02:10:48;99648.78;;;8.83;100.00
60099;BME280;62818;49.394;8.686;2023-04-02T02:11:49;99652.25;;;8.84;100.00
60099;BME280;62818;49.394;8.686;2023-04-02T02:12:50;99647.16;;;8.82;100.00
60099;BME280;62818;49.394;8.686;2023-04-02T02:14:14;99653.34;;;8.75;100.00
60099;BME280;62818;49.394;8.686;2023-04-02T02:15:22;99654.91;;;8.69;100.00
60099;BME280;62818;49.394;8.686;2023-04-02T02:16:24;99654.16;;;8.75;100.00
60099;BME280;62818;49.394;8.686;2023-04-02T02:17:29;99658.47;;;8.76;100.00
60099;BME280;62818;49.394;8.686;2023-04-02T02:18:33;99652.16;;;8.77;100.00
60099;BME280;62818;49.394;8.686;2023-04-02T02:19:38;99653.06;;;8.70;100.00
60099;BME280;62818;49.394;8.686;2023-04-02T02:20:42;99652.69;;;8.73;100.00
60099;BME280;62818;49.394;8.686;2023-04-02T02:21:46;99653.06;;;8.70;100.00
60099;BME280;62818;49.394;8.686;2023-04-02T02:22:50;99651.06;;;8.86;100.00
60099;BME280;62818;49.394;8.686;2023-04-02T02:23:51;99657.53;;;8.69;100.00
60099;BME280;62818;49.394;8.686;2023-04-02T02:24:53;99652.88;;;8.71;100.00
60099;BME280;62818;49.394;8.686;2023-04-02T02:25:57;99658.81;;;8.73;100.00
60099;BME280;62818;49.394;8.686;2023-04-02T02:27:20;99658.53;;;8.68;100.00
60099;BME280;62818;49.394;8.686;2023-04-02T02:28:32;99659.16;;;8.70;100.00
60099;BME280;62818;49.394;8.686;2023-04-02T02:29:40;99670.94;;;8.68;100.00
60099;BME280;62818;49.394;8.686;2023-04-02T02:31:16;99661.09;;;8.76;100.00
60099;BME280;62818;49.394;8.686;2023-04-02T02:32:26;99668.09;;;8.69;100.00
60099;BME280;62818;49.394;8.686;2023-04-02T02:33:36;99676.47;;;8.58;100.00
60099;BME280;62818;49.394;8.686;2023-04-02T02:34:59;99667.72;;;8.72;100.00
60099;BME280;62818;49.394;8.686;2023-04-02T02:36:21;99670.31;;;8.80;100.00
60099;BME280;62818;49.394;8.686;2023-04-02T02:37:28;99678.97;;;8.74;100.00
60099;BME280;62818;49.394;8.686;2023-04-02T02:39:59;99675.81;;;8.56;100.00
60099;BME280;62818;49.394;8.686;2023-04-02T02:41:07;99668.00;;;8.77;100.00
60099;BME280;62818;49.394;8.686;2023-04-02T02:42:31;99675.00;;;8.70;100.00
60099;BME280;62818;49.394;8.686;2023-04-02T02:43:38;99675.66;;;8.72;100.00
60099;BME280;62818;49.394;8.686;2023-04-02T02:44:46;99672.66;;;8.75;100.00
60099;BME280;62818;49.394;8.686;2023-04-02T02:45:49;99673.88;;;8.87;100.00
60099;BME280;62818;49.394;8.686;2023-04-02T02:47:00;99681.06;;;8.79;100.00
60099;BME280;62818;49.394;8.686;2023-04-02T02:48:10;99684.41;;;8.58;100.00
60099;BME280;62818;49.394;8.686;2023-04-02T02:49:20;99688.59;;;8.67;100.00
60099;BME280;62818;49.394;8.686;2023-04-02T02:50:29;99691.59;;;8.64;100.00
60099;BME280;62818;49.394;8.686;2023-04-02T02:53:22;99687.72;;;8.89;100.00
60099;BME280;62818;49.394;8.686;2023-04-02T02:54:24;99683.56;;;8.72;100.00
60099;BME280;62818;49.394;8.686;2023-04-02T02:55:29;99689.69;;;8.58;100.00
60099;BME280;62818;49.394;8.686;2023-04-02T02:56:41;99691.59;;;8.64;100.00
60099;BME280;62818;49.394;8.686;2023-04-02T02:57:52;99687.47;;;8.62;100.00
60099;BME280;62818;49.394;8.686;2023-04-02T02:59:02;99691.97;;;8.61;100.00
60099;BME280;62818;49.394;8.686;2023-04-02T03:00:07;99689.50;;;8.60;100.00
60099;BME280;62818;49.394;8.686;2023-04-02T03:01:10;99694.41;;;8.63;100.00
60099;BME280;62818;49.394;8.686;2023-04-02T03:02:13;99694.00;;;8.74;100.00
60099;BME280;62818;49.394;8.686;2023-04-02T03:03:21;99689.34;;;8.90;100.00
60099;BME280;62818;49.394;8.686;2023-04-02T03:04:25;99692.72;;;8.84;100.00
60099;BME280;62818;49.394;8.686;2023-04-02T03:05:29;99696.72;;;8.80;100.00
60099;BME280;62818;49.394;8.686;2023-04-02T03:06:31;99700.66;;;8.84;100.00
60099;BME280;62818;49.394;8.686;2023-04-02T03:07:31;99691.50;;;8.72;100.00
60099;BME280;62818;49.394;8.686;2023-04-02T03:08:40;99695.91;;;8.80;100.00
60099;BME280;62818;49.394;8.686;2023-04-02T03:10:01;99697.13;;;8.92;100.00
60099;BME280;62818;49.394;8.686;2023-04-02T03:13:17;99704.03;;;8.78;100.00
60099;BME280;62818;49.394;8.686;2023-04-02T03:14:45;99710.66;;;8.74;100.00
60099;BME280;62818;49.394;8.686;2023-04-02T03:15:55;99705.84;;;8.78;100.00
60099;BME280;62818;49.394;8.686;2023-04-02T03:17:18;99708.19;;;8.73;100.00
60099;BME280;62818;49.394;8.686;2023-04-02T03:18:36;99703.47;;;8.83;100.00
60099;BME280;62818;49.394;8.686;2023-04-02T03:20:20;99711.75;;;8.65;100.00
60099;BME280;62818;49.394;8.686;2023-04-02T03:21:35;99712.81;;;8.56;100.00
60099;BME280;62818;49.394;8.686;2023-04-02T03:22:54;99714.91;;;8.61;100.00
60099;BME280;62818;49.394;8.686;2023-04-02T03:25:43;99714.16;;;8.52;100.00
60099;BME280;62818;49.394;8.686;2023-04-02T03:26:57;99714.44;;;8.57;100.00
60099;BME280;62818;49.394;8.686;2023-04-02T03:28:12;99722.94;;;8.67;100.00
60099;BME280;62818;49.394;8.686;2023-04-02T03:29:26;99718.53;;;8.60;100.00
60099;BME280;62818;49.394;8.686;2023-04-02T03:31:47;99723.59;;;8.69;100.00
60099;BME280;62818;49.394;8.686;2023-04-02T03:33:00;99723.22;;;8.72;100.00
60099;BME280;62818;49.394;8.686;2023-04-02T03:35:40;99723.22;;;8.72;100.00
60099;BME280;62818;49.394;8.686;2023-04-02T03:36:52;99726.16;;;8.77;100.00
60099;BME280;62818;49.394;8.686;2023-04-02T03:38:15;99724.94;;;8.65;100.00
60099;BME280;62818;49.394;8.686;2023-04-02T03:41:21;99733.63;;;8.74;100.00
60099;BME280;62818;49.394;8.686;2023-04-02T03:42:38;99736.06;;;8.75;100.00
60099;BME280;62818;49.394;8.686;2023-04-02T03:43:53;99739.88;;;8.73;100.00
60099;BME280;62818;49.394;8.686;2023-04-02T03:45:02;99730.78;;;8.61;100.00
60099;BME280;62818;49.394;8.686;2023-04-02T03:47:34;99737.09;;;8.74;100.00
60099;BME280;62818;49.394;8.686;2023-04-02T03:48:42;99738.81;;;8.67;100.00
60099;BME280;62818;49.394;8.686;2023-04-02T03:49:53;99735.56;;;8.57;100.00
60099;BME280;62818;49.394;8.686;2023-04-02T03:51:05;99744.63;;;8.63;100.00
60099;BME280;62818;49.394;8.686;2023-04-02T03:52:25;99742.97;;;8.62;100.00
60099;BME280;62818;49.394;8.686;2023-04-02T03:53:27;99740.50;;;8.60;100.00
60099;BME280;62818;49.394;8.686;2023-04-02T03:54:31;99748.84;;;8.72;100.00
60099;BME280;62818;49.394;8.686;2023-04-02T03:55:35;99745.44;;;8.63;100.00
60099;BME280;62818;49.394;8.686;2023-04-02T03:56:38;99749.28;;;8.75;100.00
60099;BME280;62818;49.394;8.686;2023-04-02T03:57:41;99748.09;;;8.78;100.00
60099;BME280;62818;49.394;8.686;2023-04-02T03:58:51;99756.00;;;8.63;100.00
60099;BME280;62818;49.394;8.686;2023-04-02T04:01:32;99754.13;;;8.72;100.00
60099;BME280;62818;49.394;8.686;2023-04-02T04:02:46;99750.41;;;8.81;100.00
60099;BME280;62818;49.394;8.686;2023-04-02T04:03:53;99752.84;;;8.82;100.00
60099;BME280;62818;49.394;8.686;2023-04-02T04:04:56;99761.00;;;8.95;100.00
60099;BME280;62818;49.394;8.686;2023-04-02T04:06:19;99755.84;;;8.79;100.00
60099;BME280;62818;49.394;8.686;2023-04-02T04:07:39;99765.25;;;8.82;100.00
60099;BME280;62818;49.394;8.686;2023-04-02T04:08:47;99764.78;;;8.78;100.00
60099;BME280;62818;49.394;8.686;2023-04-02T04:09:51;99763.84;;;8.71;100.00
60099;BME280;62818;49.394;8.686;2023-04-02T04:10:56;99759.84;;;8.75;100.00
60099;BME280;62818;49.394;8.686;2023-04-02T04:13:30;99769.50;;;8.68;100.00
60099;BME280;62818;49.394;8.686;2023-04-02T04:14:43;99771.88;;;8.78;100.00
60099;BME280;62818;49.394;8.686;2023-04-02T04:15:59;99769.88;;;8.65;100.00
60099;BME280;62818;49.394;8.686;2023-04-02T04:17:46;99768.09;;;8.58;100.00
60099;BME280;62818;49.394;8.686;2023-04-02T04:18:55;99767.78;;;8.75;100.00
60099;BME280;62818;49.394;8.686;2023-04-02T04:20:19;99769.50;;;8.68;100.00
60099;BME280;62818;49.394;8.686;2023-04-02T04:21:25;99774.72;;;8.76;100.00
60099;BME280;62818;49.394;8.686;2023-04-02T04:22:30;99778.31;;;8.61;100.00
60099;BME280;62818;49.394;8.686;2023-04-02T04:23:37;99772.41;;;8.73;100.00
60099;BME280;62818;49.394;8.686;2023-04-02T04:24:40;99777.38;;;8.76;100.00
60099;BME280;62818;49.394;8.686;2023-04-02T04:25:45;99772.25;;;8.75;100.00
60099;BME280;62818;49.394;8.686;2023-04-02T04:27:14;99781.63;;;8.77;100.00
60099;BME280;62818;49.394;8.686;2023-04-02T04:28:30;99782.34;;;8.71;100.00
60099;BME280;62818;49.394;8.686;2023-04-02T04:30:23;99786.28;;;8.53;100.00
60099;BME280;62818;49.394;8.686;2023-04-02T04:31:36;99787.72;;;8.63;100.00
60099;BME280;62818;49.394;8.686;2023-04-02T04:32:56;99788.34;;;8.65;100.00
60099;BME280;62818;49.394;8.686;2023-04-02T04:34:07;99781.81;;;8.76;100.00
60099;BME280;62818;49.394;8.686;2023-04-02T04:35:36;99786.38;;;8.82;100.00
60099;BME280;62818;49.394;8.686;2023-04-02T04:36:42;99791.84;;;8.80;100.00
60099;BME280;62818;49.394;8.686;2023-04-02T04:40:41;99793.56;;;8.73;100.00
60099;BME280;62818;49.394;8.686;2023-04-02T04:41:22;99792.50;;;8.82;100.00
60099;BME280;62818;49.394;8.686;2023-04-02T04:42:29;99796.50;;;8.78;100.00
60099;BME280;62818;49.394;8.686;2023-04-02T04:44:00;99799.06;;;8.64;100.00
60099;BME280;62818;49.394;8.686;2023-04-02T04:45:21;99800.13;;;8.77;100.00
60099;BME280;62818;49.394;8.686;2023-04-02T04:46:42;99810.69;;;8.77;100.00
60099;BME280;62818;49.394;8.686;2023-04-02T04:47:56;99803.84;;;8.68;100.00
60099;BME280;62818;49.394;8.686;2023-04-02T04:49:08;99810.13;;;8.67;100.00
60099;BME280;62818;49.394;8.686;2023-04-02T04:50:36;99812.78;;;8.67;100.00
60099;BME280;62818;49.394;8.686;2023-04-02T04:51:47;99807.75;;;8.72;100.00
60099;BME280;62818;49.394;8.686;2023-04-02T04:52:53;99818.63;;;8.77;100.00
60099;BME280;62818;49.394;8.686;2023-04-02T04:53:54;99815.25;;;8.83;100.00
60099;BME280;62818;49.394;8.686;2023-04-02T04:54:55;99813.28;;;8.85;100.00
60099;BME280;62818;49.394;8.686;2023-04-02T04:55:56;99819.00;;;8.74;100.00
60099;BME280;62818;49.394;8.686;2023-04-02T04:57:02;99818.56;;;8.85;100.00
60099;BME280;62818;49.394;8.686;2023-04-02T04:59:25;99818.63;;;8.77;100.00
60099;BME280;62818;49.394;8.686;2023-04-02T05:00:41;99823.09;;;8.77;100.00
60099;BME280;62818;49.394;8.686;2023-04-02T05:02:04;99828.44;;;8.69;100.00
60099;BME280;62818;49.394;8.686;2023-04-02T05:04:51;99835.72;;;8.67;100.00
60099;BME280;62818;49.394;8.686;2023-04-02T05:05:51;99832.25;;;8.66;100.00
60099;BME280;62818;49.394;8.686;2023-04-02T05:07:03;99828.09;;;8.72;100.00
60099;BME280;62818;49.394;8.686;2023-04-02T05:08:28;99835.31;;;8.55;100.00
60099;BME280;62818;49.394;8.686;2023-04-02T05:09:41;99839.94;;;8.53;100.00
60099;BME280;62818;49.394;8.686;2023-04-02T05:10:55;99841.94;;;8.51;100.00
60099;BME280;62818;49.394;8.686;2023-04-02T05:12:05;99837.13;;;8.55;100.00
60099;BME280;62818;49.394;8.686;2023-04-02T05:13:28;99839.22;;;8.59;100.00
60099;BME280;62818;49.394;8.686;2023-04-02T05:17:18;99847.94;;;8.68;100.00
60099;BME280;62818;49.394;8.686;2023-04-02T05:18:33;99852.16;;;8.77;100.00
60099;BME280;62818;49.394;8.686;2023-04-02T05:20:13;99858.97;;;8.71;100.00
60099;BME280;62818;49.394;8.686;2023-04-02T05:22:43;99863.91;;;8.74;100.00
60099;BME280;62818;49.394;8.686;2023-04-02T05:24:01;99860.59;;;8.72;100.00
60099;BME280;62818;49.394;8.686;2023-04-02T05:25:25;99858.03;;;8.64;100.00
60099;BME280;62818;49.394;8.686;2023-04-02T05:26:31;99864.59;;;8.68;100.00
60099;BME280;62818;49.394;8.686;2023-04-02T05:28:01;99869.53;;;8.71;100.00
60099;BME280;62818;49.394;8.686;2023-04-02T05:29:11;99865.31;;;8.62;100.00
60099;BME280;62818;49.394;8.686;2023-04-02T05:30:43;99866.25;;;8.69;100.00
60099;BME280;62818;49.394;8.686;2023-04-02T05:31:56;99868.91;;;8.69;100.00
60099;BME280;62818;49.394;8.686;2023-04-02T05:33:12;99872.25;;;8.63;100.00
60099;BME280;62818;49.394;8.686;2023-04-02T05:34:23;99876.00;;;8.69;100.00
60099;BME280;62818;49.394;8.686;2023-04-02T05:35:33;99873.78;;;8.80;100.00
60099;BME280;62818;49.394;8.686;2023-04-02T05:36:36;99875.47;;;8.73;100.00
60099;BME280;62818;49.394;8.686;2023-04-02T05:37:38;99876.00;;;8.69;100.00
60099;BME280;62818;49.394;8.686;2023-04-02T05:38:44;99872.94;;;8.80;100.00
60099;BME280;62818;49.394;8.686;2023-04-02T05:39:52;99873.81;;;8.72;100.00
60099;BME280;62818;49.394;8.686;2023-04-02T05:42:15;99879.06;;;8.80;100.00
60099;BME280;62818;49.394;8.686;2023-04-02T05:43:23;99878.69;;;8.83;100.00
60099;BME280;62818;49.394;8.686;2023-04-02T05:44:30;99877.47;;;8.71;100.00
60099;BME280;62818;49.394;8.686;2023-04-02T05:45:34;99890.09;;;8.84;100.00
60099;BME280;62818;49.394;8.686;2023-04-02T05:46:56;99884.09;;;8.67;100.00
60099;BME280;62818;49.394;8.686;2023-04-02T05:48:03;99893.84;;;8.67;100.00
60099;BME280;62818;49.394;8.686;2023-04-02T05:50:48;99888.81;;;8.80;100.00
60099;BME280;62818;49.394;8.686;2023-04-02T05:51:55;99896.44;;;8.75;100.00
60099;BME280;62818;49.394;8.686;2023-04-02T05:53:09;99900.53;;;8.77;100.00
60099;BME280;62818;49.394;8.686;2023-04-02T05:54:22;99898.66;;;8.86;100.00
60099;BME280;62818;49.394;8.686;2023-04-02T05:55:52;99894.44;;;8.77;100.00
60099;BME280;62818;49.394;8.686;2023-04-02T05:57:06;99898.91;;;8.76;100.00
60099;BME280;62818;49.394;8.686;2023-04-02T05:59:42;99899.19;;;8.81;100.00
60099;BME280;62818;49.394;8.686;2023-04-02T06:02:50;99917.94;;;8.72;100.00
60099;BME280;62818;49.394;8.686;2023-04-02T06:05:40;99912.69;;;8.86;100.00
60099;BME280;62818;49.394;8.686;2023-04-02T06:06:49;99911.72;;;8.87;100.00
60099;BME280;62818;49.394;8.686;2023-04-02T06:08:10;99921.59;;;8.93;100.00
60099;BME280;62818;49.394;8.686;2023-04-02T06:10:31;99919.66;;;8.87;100.00
60099;BME280;62818;49.394;8.686;2023-04-02T06:11:48;99922.94;;;8.89;100.00
60099;BME280;62818;49.394;8.686;2023-04-02T06:13:00;99913.94;;;8.99;100.00
60099;BME280;62818;49.394;8.686;2023-04-02T06:14:05;99928.63;;;9.01;100.00
60099;BME280;62818;49.394;8.686;2023-04-02T06:15:16;99934.00;;;9.08;100.00
60099;BME280;62818;49.394;8.686;2023-04-02T06:16:19;99932.16;;;8.93;100.00
60099;BME280;62818;49.394;8.686;2023-04-02T06:17:25;99937.44;;;8.93;100.00
60099;BME280;62818;49.394;8.686;2023-04-02T06:18:29;99932.69;;;8.89;100.00
60099;BME280;62818;49.394;8.686;2023-04-02T06:19:36;99937.78;;;8.90;100.00
60099;BME280;62818;49.394;8.686;2023-04-02T06:20:38;99933.72;;;8.80;100.00
60099;BME280;62818;49.394;8.686;2023-04-02T06:21:50;99931.84;;;8.88;100.00
60099;BME280;62818;49.394;8.686;2023-04-02T06:22:58;99939.06;;;8.94;100.00
60099;BME280;62818;49.394;8.686;2023-04-02T06:24:03;99946.72;;;8.89;100.00
60099;BME280;62818;49.394;8.686;2023-04-02T06:25:26;99943.44;;;8.87;100.00
60099;BME280;62818;49.394;8.686;2023-04-02T06:26:42;99943.06;;;8.90;100.00
60099;BME280;62818;49.394;8.686;2023-04-02T06:27:49;99944.53;;;8.93;100.00
60099;BME280;62818;49.394;8.686;2023-04-02T06:29:03;99952.00;;;8.89;100.00
60099;BME280;62818;49.394;8.686;2023-04-02T06:30:17;99955.00;;;8.86;100.00
60099;BME280;62818;49.394;8.686;2023-04-02T06:32:36;99955.63;;;8.88;100.00
60099;BME280;62818;49.394;8.686;2023-04-02T06:33:36;99951.75;;;8.76;100.00
60099;BME280;62818;49.394;8.686;2023-04-02T06:34:38;99957.84;;;8.77;100.00
60099;BME280;62818;49.394;8.686;2023-04-02T06:35:42;99960.28;;;8.86;100.00
60099;BME280;62818;49.394;8.686;2023-04-02T06:36:46;99964.22;;;8.90;100.00
60099;BME280;62818;49.394;8.686;2023-04-02T06:37:52;99962.53;;;8.98;100.00
60099;BME280;62818;49.394;8.686;2023-04-02T06:38:59;99963.88;;;8.93;100.00
60099;BME280;62818;49.394;8.686;2023-04-02T06:40:13;99964.09;;;8.84;100.00
60099;BME280;62818;49.394;8.686;2023-04-02T06:41:25;99969.16;;;8.93;100.00
60099;BME280;62818;49.394;8.686;2023-04-02T06:42:33;99970.50;;;8.89;100.00
60099;BME280;62818;49.394;8.686;2023-04-02T06:44:14;99970.38;;;8.83;100.00
60099;BME280;62818;49.394;8.686;2023-04-02T06:45:31;99969.75;;;8.81;100.00
60099;BME280;62818;49.394;8.686;2023-04-02T06:46:46;99974.78;;;8.90;100.00
60099;BME280;62818;49.394;8.686;2023-04-02T06:47:50;99973.75;;;9.00;100.00
60099;BME280;62818;49.394;8.686;2023-04-02T06:49:01;99990.88;;;9.04;100.00
60099;BME280;62818;49.394;8.686;2023-04-02T06:50:22;99981.25;;;8.88;100.00
60099;BME280;62818;49.394;8.686;2023-04-02T06:51:31;99984.00;;;8.94;100.00
60099;BME280;62818;49.394;8.686;2023-04-02T06:52:42;99986.53;;;8.88;100.00
60099;BME280;62818;49.394;8.686;2023-04-02T06:53:46;99985.47;;;8.97;100.00
60099;BME280;62818;49.394;8.686;2023-04-02T06:54:49;99993.13;;;9.15;100.00
60099;BME280;62818;49.394;8.686;2023-04-02T06:55:53;99987.72;;;9.08;100.00
60099;BME280;62818;49.394;8.686;2023-04-02T06:57:03;99995.53;;;9.02;100.00
60099;BME280;62818;49.394;8.686;2023-04-02T06:58:04;99996.78;;;9.14;100.00
60099;BME280;62818;49.394;8.686;2023-04-02T06:59:05;99997.44;;;9.16;100.00
60099;BME280;62818;49.394;8.686;2023-04-02T07:00:23;100003.78;;;9.07;100.00
60099;BME280;62818;49.394;8.686;2023-04-02T07:01:57;99999.13;;;9.09;100.00
60099;BME280;62818;49.394;8.686;2023-04-02T07:03:07;100007.78;;;8.94;100.00
60099;BME280;62818;49.394;8.686;2023-04-02T07:04:13;100004.03;;;8.89;100.00
60099;BME280;62818;49.394;8.686;2023-04-02T07:05:14;100008.50;;;8.88;100.00
60099;BME280;62818;49.394;8.686;2023-04-02T07:06:17;100013.81;;;9.11;100.00
60099;BME280;62818;49.394;8.686;2023-04-02T07:07:20;100013.34;;;9.08;100.00
60099;BME280;62818;49.394;8.686;2023-04-02T07:08:20;100012.28;;;8.94;100.00
60099;BME280;62818;49.394;8.686;2023-04-02T07:09:22;100014.16;;;8.85;100.00
60099;BME280;62818;49.394;8.686;2023-04-02T07:10:22;100015.06;;;8.92;100.00
60099;BME280;62818;49.394;8.686;2023-04-02T07:11:23;100016.03;;;9.00;100.00